sensor_id;sensor_type;location;lat;lon;timestamp;P1;durP1;ratioP1;P2;durP2;ratioP2
11767;SDS011;5941;57.652;12.514;2023-04-30T00:00:19;762.23;;;710.40;;
11767;SDS011;5941;57.652;12.514;2023-04-30T00:02:45;706.80;;;660.70;;
11767;SDS011;5941;57.652;12.514;2023-04-30T00:05:11;804.83;;;748.23;;
11767;SDS011;5941;57.652;12.514;2023-04-30T00:07:37;808.33;;;751.43;;
11767;SDS011;5941;57.652;12.514;2023-04-30T00:10:06;964.03;;;888.50;;
11767;SDS011;5941;57.652;12.514;2023-04-30T00:12:32;928.70;;;860.50;;
11767;SDS011;5941;57.652;12.514;2023-04-30T00:14:58;1044.00;;;956.53;;
11767;SDS011;5941;57.652;12.514;2023-04-30T00:17:25;1171.87;;;999.90;;
11767;SDS011;5941;57.652;12.514;2023-04-30T00:19:51;905.43;;;838.57;;
11767;SDS011;5941;57.652;12.514;2023-04-30T00:22:17;852.10;;;791.80;;
11767;SDS011;5941;57.652;12.514;2023-04-30T00:24:43;910.13;;;842.83;;
11767;SDS011;5941;57.652;12.514;2023-04-30T00:27:09;820.23;;;763.50;;
11767;SDS011;5941;57.652;12.514;2023-04-30T00:29:35;936.97;;;864.23;;
11767;SDS011;5941;57.652;12.514;2023-04-30T00:32:01;778.47;;;726.73;;
11767;SDS011;5941;57.652;12.514;2023-04-30T00:34:27;801.23;;;746.73;;
11767;SDS011;5941;57.652;12.514;2023-04-30T00:36:53;876.40;;;814.23;;
11767;SDS011;5941;57.652;12.514;2023-04-30T00:39:19;964.13;;;891.27;;
11767;SDS011;5941;57.652;12.514;2023-04-30T00:41:45;851.77;;;790.10;;
11767;SDS011;5941;57.652;12.514;2023-04-30T00:44:11;1999.90;;;999.90;;
11767;SDS011;5941;57.652;12.514;2023-04-30T00:46:37;1999.90;;;999.90;;
11767;SDS011;5941;57.652;12.514;2023-04-30T00:49:03;1621.07;;;934.37;;
11767;SDS011;5941;57.652;12.514;2023-04-30T00:51:30;1999.90;;;999.90;;
11767;SDS011;5941;57.652;12.514;2023-04-30T00:53:58;1999.90;;;999.90;;
11767;SDS011;5941;57.652;12.514;2023-04-30T00:56:25;1999.90;;;999.90;;
11767;SDS011;5941;57.652;12.514;2023-04-30T00:58:51;1999.90;;;999.90;;
11767;SDS011;5941;57.652;12.514;2023-04-30T01:01:22;1999.90;;;999.90;;
11767;SDS011;5941;57.652;12.514;2023-04-30T01:03:48;1999.90;;;999.90;;
11767;SDS011;5941;57.652;12.514;2023-04-30T01:06:14;1041.50;;;956.97;;
11767;SDS011;5941;57.652;12.514;2023-04-30T01:08:40;1999.90;;;999.90;;
11767;SDS011;5941;57.652;12.514;2023-04-30T01:11:10;1332.00;;;947.73;;
11767;SDS011;5941;57.652;12.514;2023-04-30T01:13:38;1999.90;;;999.90;;
11767;SDS011;5941;57.652;12.514;2023-04-30T01:16:16;1999.90;;;999.90;;
11767;SDS011;5941;57.652;12.514;2023-04-30T01:19:28;1999.90;;;999.90;;
11767;SDS011;5941;57.652;12.514;2023-04-30T01:21:32;1999.90;;;999.90;;
11767;SDS011;5941;57.652;12.514;2023-04-30T01:26:52;1999.90;;;999.90;;
11767;SDS011;5941;57.652;12.514;2023-04-30T01:29:25;1999.90;;;999.90;;
11767;SDS011;5941;57.652;12.514;2023-04-30T01:31:51;1999.90;;;999.90;;
11767;SDS011;5941;57.652;12.514;2023-04-30T01:34:17;1999.90;;;999.90;;
11767;SDS011;5941;57.652;12.514;2023-04-30T01:36:46;1999.90;;;999.90;;
11767;SDS011;5941;57.652;12.514;2023-04-30T01:39:24;1999.90;;;999.90;;
11767;SDS011;5941;57.652;12.514;2023-04-30T01:47:38;1999.90;;;999.90;;
11767;SDS011;5941;57.652;12.514;2023-04-30T01:50:09;1999.90;;;999.90;;
11767;SDS011;5941;57.652;12.514;2023-04-30T01:53:11;1999.90;;;999.90;;
11767;SDS011;5941;57.652;12.514;2023-04-30T01:57:58;1999.90;;;999.90;;
11767;SDS011;5941;57.652;12.514;2023-04-30T02:00:25;1999.90;;;999.90;;
11767;SDS011;5941;57.652;12.514;2023-04-30T02:02:51;1999.90;;;999.90;;
11767;SDS011;5941;57.652;12.514;2023-04-30T02:05:17;1999.90;;;999.90;;
11767;SDS011;5941;57.652;12.514;2023-04-30T02:07:44;1999.90;;;999.90;;
11767;SDS011;5941;57.652;12.514;2023-04-30T02:10:11;1999.90;;;999.90;;
11767;SDS011;5941;57.652;12.514;2023-04-30T02:12:37;1999.90;;;999.90;;
11767;SDS011;5941;57.652;12.514;2023-04-30T02:15:03;1999.90;;;999.90;;
11767;SDS011;5941;57.652;12.514;2023-04-30T02:17:30;1999.90;;;999.90;;
11767;SDS011;5941;57.652;12.514;2023-04-30T02:19:56;1999.90;;;999.90;;
11767;SDS011;5941;57.652;12.514;2023-04-30T02:22:22;1999.90;;;999.90;;
11767;SDS011;5941;57.652;12.514;2023-04-30T02:24:48;1999.90;;;999.90;;
11767;SDS011;5941;57.652;12.514;2023-04-30T02:27:14;1999.90;;;999.90;;
11767;SDS011;5941;57.652;12.514;2023-04-30T02:29:40;1999.90;;;999.90;;
11767;SDS011;5941;57.652;12.514;2023-04-30T02:32:06;1999.90;;;999.90;;
11767;SDS011;5941;57.652;12.514;2023-04-30T02:34:32;1999.90;;;999.90;;
11767;SDS011;5941;57.652;12.514;2023-04-30T02:36:58;1999.90;;;999.90;;
11767;SDS011;5941;57.652;12.514;2023-04-30T02:39:24;1999.90;;;999.90;;
11767;SDS011;5941;57.652;12.514;2023-04-30T02:41:51;1999.90;;;999.90;;
11767;SDS011;5941;57.652;12.514;2023-04-30T02:44:16;1999.90;;;999.90;;
11767;SDS011;5941;57.652;12.514;2023-04-30T02:46:43;1999.90;;;999.90;;
11767;SDS011;5941;57.652;12.514;2023-04-30T02:49:09;1999.90;;;999.90;;
11767;SDS011;5941;57.652;12.514;2023-04-30T02:51:35;1999.90;;;999.90;;
11767;SDS011;5941;57.652;12.514;2023-04-30T02:54:01;1999.90;;;999.90;;
11767;SDS011;5941;57.652;12.514;2023-04-30T02:56:26;1999.90;;;999.90;;
11767;SDS011;5941;57.652;12.514;2023-04-30T02:58:52;1999.90;;;999.90;;
11767;SDS011;5941;57.652;12.514;2023-04-30T03:01:19;1999.90;;;999.90;;
11767;SDS011;5941;57.652;12.514;2023-04-30T03:03:45;1999.90;;;999.90;;
11767;SDS011;5941;57.652;12.514;2023-04-30T03:06:11;1999.90;;;999.90;;
11767;SDS011;5941;57.652;12.514;2023-04-30T03:08:36;1999.90;;;999.90;;
11767;SDS011;5941;57.652;12.514;2023-04-30T03:11:02;1999.90;;;999.90;;
11767;SDS011;5941;57.652;12.514;2023-04-30T03:13:28;1999.90;;;999.90;;
11767;SDS011;5941;57.652;12.514;2023-04-30T03:15:58;1999.90;;;999.90;;
11767;SDS011;5941;57.652;12.514;2023-04-30T03:18:24;1999.90;;;999.90;;
11767;SDS011;5941;57.652;12.514;2023-04-30T03:20:50;1999.90;;;999.90;;
11767;SDS011;5941;57.652;12.514;2023-04-30T03:23:16;1999.90;;;999.90;;
11767;SDS011;5941;57.652;12.514;2023-04-30T03:25:42;1999.90;;;999.90;;
11767;SDS011;5941;57.652;12.514;2023-04-30T03:28:08;1999.90;;;999.90;;
11767;SDS011;5941;57.652;12.514;2023-04-30T03:30:34;1999.90;;;999.90;;
11767;SDS011;5941;57.652;12.514;2023-04-30T03:33:00;1999.90;;;999.90;;
11767;SDS011;5941;57.652;12.514;2023-04-30T03:35:26;1999.90;;;999.90;;
11767;SDS011;5941;57.652;12.514;2023-04-30T03:37:52;1999.90;;;999.90;;
11767;SDS011;5941;57.652;12.514;2023-04-30T03:40:18;1999.90;;;999.90;;
11767;SDS011;5941;57.652;12.514;2023-04-30T03:42:43;1999.90;;;999.90;;
11767;SDS011;5941;57.652;12.514;2023-04-30T03:45:10;1999.90;;;999.90;;
11767;SDS011;5941;57.652;12.514;2023-04-30T03:47:36;1999.90;;;999.90;;
11767;SDS011;5941;57.652;12.514;2023-04-30T03:50:02;1999.90;;;999.90;;
11767;SDS011;5941;57.652;12.514;2023-04-30T03:52:28;1999.90;;;999.90;;
11767;SDS011;5941;57.652;12.514;2023-04-30T03:54:55;1999.90;;;999.90;;
11767;SDS011;5941;57.652;12.514;2023-04-30T03:57:21;1999.90;;;999.90;;
11767;SDS011;5941;57.652;12.514;2023-04-30T03:59:47;1999.90;;;999.90;;
11767;SDS011;5941;57.652;12.514;2023-04-30T04:02:13;1999.90;;;999.90;;
11767;SDS011;5941;57.652;12.514;2023-04-30T04:04:39;1999.90;;;999.90;;
11767;SDS011;5941;57.652;12.514;2023-04-30T04:07:05;1999.90;;;999.90;;
11767;SDS011;5941;57.652;12.514;2023-04-30T04:09:33;1999.90;;;999.90;;
11767;SDS011;5941;57.652;12.514;2023-04-30T04:11:59;1999.90;;;999.90;;
11767;SDS011;5941;57.652;12.514;2023-04-30T04:14:26;1999.90;;;999.90;;
11767;SDS011;5941;57.652;12.514;2023-04-30T04:16:52;1999.90;;;999.90;;
11767;SDS011;5941;57.652;12.514;2023-04-30T04:19:18;1999.90;;;999.90;;
11767;SDS011;5941;57.652;12.514;2023-04-30T04:21:44;1999.90;;;999.90;;
11767;SDS011;5941;57.652;12.514;2023-04-30T04:24:10;1999.90;;;999.90;;
11767;SDS011;5941;57.652;12.514;2023-04-30T04:26:36;1999.90;;;999.90;;
11767;SDS011;5941;57.652;12.514;2023-04-30T04:29:03;1999.90;;;999.90;;
11767;SDS011;5941;57.652;12.514;2023-04-30T04:31:29;1999.90;;;999.90;;
11767;SDS011;5941;57.652;12.514;2023-04-30T04:33:56;1999.90;;;999.90;;
11767;SDS011;5941;57.652;12.514;2023-04-30T04:36:23;1999.90;;;999.90;;
11767;SDS011;5941;57.652;12.514;2023-04-30T04:38:51;1999.90;;;999.90;;
11767;SDS011;5941;57.652;12.514;2023-04-30T04:41:17;1999.90;;;999.90;;
11767;SDS011;5941;57.652;12.514;2023-04-30T04:43:43;1999.90;;;999.90;;
11767;SDS011;5941;57.652;12.514;2023-04-30T04:46:09;1999.90;;;999.90;;
11767;SDS011;5941;57.652;12.514;2023-04-30T04:48:35;1999.90;;;999.90;;
11767;SDS011;5941;57.652;12.514;2023-04-30T04:51:01;1999.90;;;999.90;;
11767;SDS011;5941;57.652;12.514;2023-04-30T04:53:27;1999.90;;;999.90;;
11767;SDS011;5941;57.652;12.514;2023-04-30T04:55:53;1999.90;;;999.90;;
11767;SDS011;5941;57.652;12.514;2023-04-30T04:58:20;1999.90;;;999.90;;
11767;SDS011;5941;57.652;12.514;2023-04-30T05:00:46;1999.90;;;999.90;;
11767;SDS011;5941;57.652;12.514;2023-04-30T05:03:12;1999.90;;;999.90;;
11767;SDS011;5941;57.652;12.514;2023-04-30T05:05:38;1999.90;;;999.90;;
11767;SDS011;5941;57.652;12.514;2023-04-30T05:08:04;1999.90;;;999.90;;
11767;SDS011;5941;57.652;12.514;2023-04-30T05:10:30;1999.90;;;999.90;;
11767;SDS011;5941;57.652;12.514;2023-04-30T05:12:56;1999.90;;;999.90;;
11767;SDS011;5941;57.652;12.514;2023-04-30T05:15:22;1999.90;;;999.90;;
11767;SDS011;5941;57.652;12.514;2023-04-30T05:17:48;1999.90;;;999.90;;
11767;SDS011;5941;57.652;12.514;2023-04-30T05:20:14;1999.90;;;999.90;;
11767;SDS011;5941;57.652;12.514;2023-04-30T05:22:40;1999.90;;;999.90;;
11767;SDS011;5941;57.652;12.514;2023-04-30T05:25:06;1999.90;;;999.90;;
11767;SDS011;5941;57.652;12.514;2023-04-30T05:27:32;1999.90;;;999.90;;
11767;SDS011;5941;57.652;12.514;2023-04-30T05:29:58;1999.90;;;999.90;;
11767;SDS011;5941;57.652;12.514;2023-04-30T05:32:25;1999.90;;;999.90;;
11767;SDS011;5941;57.652;12.514;2023-04-30T05:34:51;1999.90;;;999.90;;
11767;SDS011;5941;57.652;12.514;2023-04-30T05:37:17;1999.90;;;999.90;;
11767;SDS011;5941;57.652;12.514;2023-04-30T05:39:45;1999.90;;;999.90;;
11767;SDS011;5941;57.652;12.514;2023-04-30T05:42:11;1999.90;;;999.90;;
11767;SDS011;5941;57.652;12.514;2023-04-30T05:44:37;1999.90;;;999.90;;
11767;SDS011;5941;57.652;12.514;2023-04-30T05:47:03;1999.90;;;999.90;;
11767;SDS011;5941;57.652;12.514;2023-04-30T05:49:29;1999.90;;;999.90;;
11767;SDS011;5941;57.652;12.514;2023-04-30T05:51:55;1999.90;;;999.90;;
11767;SDS011;5941;57.652;12.514;2023-04-30T05:54:21;1999.90;;;999.90;;
11767;SDS011;5941;57.652;12.514;2023-04-30T05:56:47;1999.90;;;999.90;;
11767;SDS011;5941;57.652;12.514;2023-04-30T05:59:13;1999.90;;;999.90;;
11767;SDS011;5941;57.652;12.514;2023-04-30T06:01:39;1999.90;;;999.90;;
11767;SDS011;5941;57.652;12.514;2023-04-30T06:04:05;1999.90;;;999.90;;
11767;SDS011;5941;57.652;12.514;2023-04-30T06:06:33;1999.90;;;999.90;;
11767;SDS011;5941;57.652;12.514;2023-04-30T06:08:59;1999.90;;;999.90;;
11767;SDS011;5941;57.652;12.514;2023-04-30T06:11:25;1306.37;;;921.90;;
11767;SDS011;5941;57.652;12.514;2023-04-30T06:13:51;1999.90;;;999.90;;
11767;SDS011;5941;57.652;12.514;2023-04-30T06:16:17;857.13;;;797.43;;
11767;SDS011;5941;57.652;12.514;2023-04-30T06:18:43;1026.73;;;940.90;;
11767;SDS011;5941;57.652;12.514;2023-04-30T06:21:10;1090.13;;;988.10;;
11767;SDS011;5941;57.652;12.514;2023-04-30T06:23:35;788.50;;;731.27;;
11767;SDS011;5941;57.652;12.514;2023-04-30T06:26:02;1096.60;;;992.97;;
11767;SDS011;5941;57.652;12.514;2023-04-30T06:28:28;978.87;;;897.87;;
11767;SDS011;5941;57.652;12.514;2023-04-30T06:30:54;1090.00;;;983.83;;
11767;SDS011;5941;57.652;12.514;2023-04-30T06:33:20;1011.40;;;928.30;;
11767;SDS011;5941;57.652;12.514;2023-04-30T06:35:46;936.33;;;863.33;;
11767;SDS011;5941;57.652;12.514;2023-04-30T06:38:14;1082.67;;;983.77;;
11767;SDS011;5941;57.652;12.514;2023-04-30T06:40:41;955.67;;;878.00;;
11767;SDS011;5941;57.652;12.514;2023-04-30T06:43:07;1046.20;;;954.80;;
11767;SDS011;5941;57.652;12.514;2023-04-30T06:45:33;1022.30;;;926.43;;
11767;SDS011;5941;57.652;12.514;2023-04-30T06:47:59;1073.50;;;977.13;;
11767;SDS011;5941;57.652;12.514;2023-04-30T06:50:25;993.60;;;903.87;;
11767;SDS011;5941;57.652;12.514;2023-04-30T06:52:51;1032.57;;;929.23;;
11767;SDS011;5941;57.652;12.514;2023-04-30T06:55:17;1244.53;;;999.90;;
11767;SDS011;5941;57.652;12.514;2023-04-30T06:57:43;1192.03;;;999.90;;
11767;SDS011;5941;57.652;12.514;2023-04-30T07:00:09;979.40;;;893.23;;
11767;SDS011;5941;57.652;12.514;2023-04-30T07:02:36;1168.87;;;999.90;;
11767;SDS011;5941;57.652;12.514;2023-04-30T07:05:03;1168.67;;;999.90;;
11767;SDS011;5941;57.652;12.514;2023-04-30T07:07:29;1126.27;;;999.90;;
11767;SDS011;5941;57.652;12.514;2023-04-30T07:09:55;985.27;;;903.93;;
11767;SDS011;5941;57.652;12.514;2023-04-30T07:12:21;1139.70;;;999.90;;
11767;SDS011;5941;57.652;12.514;2023-04-30T07:14:47;1199.13;;;999.90;;
11767;SDS011;5941;57.652;12.514;2023-04-30T07:17:13;1036.87;;;945.43;;
11767;SDS011;5941;57.652;12.514;2023-04-30T07:19:39;1439.27;;;999.90;;
11767;SDS011;5941;57.652;12.514;2023-04-30T07:22:05;1163.77;;;999.90;;
11767;SDS011;5941;57.652;12.514;2023-04-30T07:24:31;959.77;;;869.60;;
11767;SDS011;5941;57.652;12.514;2023-04-30T07:26:57;960.77;;;875.40;;
11767;SDS011;5941;57.652;12.514;2023-04-30T07:29:26;1999.90;;;999.90;;
11767;SDS011;5941;57.652;12.514;2023-04-30T07:31:53;793.50;;;731.27;;
11767;SDS011;5941;57.652;12.514;2023-04-30T07:34:20;1999.90;;;999.90;;
11767;SDS011;5941;57.652;12.514;2023-04-30T07:36:47;665.93;;;612.27;;
11767;SDS011;5941;57.652;12.514;2023-04-30T07:39:13;1999.90;;;999.90;;
11767;SDS011;5941;57.652;12.514;2023-04-30T07:41:38;1999.90;;;999.90;;
11767;SDS011;5941;57.652;12.514;2023-04-30T07:44:04;1999.90;;;999.90;;
11767;SDS011;5941;57.652;12.514;2023-04-30T07:46:30;1999.90;;;999.90;;
11767;SDS011;5941;57.652;12.514;2023-04-30T07:48:57;1999.90;;;999.90;;
11767;SDS011;5941;57.652;12.514;2023-04-30T07:51:23;1999.90;;;999.90;;
11767;SDS011;5941;57.652;12.514;2023-04-30T07:53:49;1999.90;;;999.90;;
11767;SDS011;5941;57.652;12.514;2023-04-30T07:56:17;1999.90;;;999.90;;
11767;SDS011;5941;57.652;12.514;2023-04-30T07:58:43;1999.90;;;999.90;;
11767;SDS011;5941;57.652;12.514;2023-04-30T08:01:09;1999.90;;;999.90;;
11767;SDS011;5941;57.652;12.514;2023-04-30T08:03:35;1999.90;;;999.90;;
11767;SDS011;5941;57.652;12.514;2023-04-30T08:06:01;1999.90;;;999.90;;
11767;SDS011;5941;57.652;12.514;2023-04-30T08:08:27;1999.90;;;999.90;;
11767;SDS011;5941;57.652;12.514;2023-04-30T08:10:53;1999.90;;;999.90;;
11767;SDS011;5941;57.652;12.514;2023-04-30T08:13:19;1999.90;;;999.90;;
11767;SDS011;5941;57.652;12.514;2023-04-30T08:15:45;1999.90;;;999.90;;
11767;SDS011;5941;57.652;12.514;2023-04-30T08:18:11;1999.90;;;999.90;;
11767;SDS011;5941;57.652;12.514;2023-04-30T08:20:37;1999.90;;;999.90;;
11767;SDS011;5941;57.652;12.514;2023-04-30T08:23:03;1999.90;;;999.90;;
11767;SDS011;5941;57.652;12.514;2023-04-30T08:25:29;1999.90;;;999.90;;
11767;SDS011;5941;57.652;12.514;2023-04-30T08:27:55;1999.90;;;999.90;;
11767;SDS011;5941;57.652;12.514;2023-04-30T08:30:21;1999.90;;;999.90;;
11767;SDS011;5941;57.652;12.514;2023-04-30T08:32:48;1999.90;;;999.90;;
11767;SDS011;5941;57.652;12.514;2023-04-30T08:35:14;1999.90;;;999.90;;
11767;SDS011;5941;57.652;12.514;2023-04-30T08:37:43;1999.90;;;999.90;;
11767;SDS011;5941;57.652;12.514;2023-04-30T08:40:10;1999.90;;;999.90;;
11767;SDS011;5941;57.652;12.514;2023-04-30T08:42:36;1999.90;;;999.90;;
11767;SDS011;5941;57.652;12.514;2023-04-30T08:45:03;1999.90;;;999.90;;
11767;SDS011;5941;57.652;12.514;2023-04-30T08:47:29;1999.90;;;999.90;;
11767;SDS011;5941;57.652;12.514;2023-04-30T08:49:55;1999.90;;;999.90;;
11767;SDS011;5941;57.652;12.514;2023-04-30T08:52:21;1999.90;;;999.90;;
11767;SDS011;5941;57.652;12.514;2023-04-30T08:54:47;1999.90;;;999.90;;
11767;SDS011;5941;57.652;12.514;2023-04-30T08:57:15;1999.90;;;999.90;;
11767;SDS011;5941;57.652;12.514;2023-04-30T08:59:43;1999.90;;;999.90;;
11767;SDS011;5941;57.652;12.514;2023-04-30T09:02:11;1999.90;;;999.90;;
11767;SDS011;5941;57.652;12.514;2023-04-30T09:04:37;1999.90;;;999.90;;
11767;SDS011;5941;57.652;12.514;2023-04-30T09:07:03;1999.90;;;999.90;;
11767;SDS011;5941;57.652;12.514;2023-04-30T09:09:29;1999.90;;;999.90;;
11767;SDS011;5941;57.652;12.514;2023-04-30T09:12:09;1999.90;;;999.90;;
11767;SDS011;5941;57.652;12.514;2023-04-30T09:14:37;1999.90;;;999.90;;
11767;SDS011;5941;57.652;12.514;2023-04-30T09:17:04;1999.90;;;999.90;;
11767;SDS011;5941;57.652;12.514;2023-04-30T09:19:30;1999.90;;;999.90;;
11767;SDS011;5941;57.652;12.514;2023-04-30T09:21:56;1999.90;;;999.90;;
11767;SDS011;5941;57.652;12.514;2023-04-30T09:24:22;1999.90;;;999.90;;
11767;SDS011;5941;57.652;12.514;2023-04-30T09:26:49;1999.90;;;999.90;;
11767;SDS011;5941;57.652;12.514;2023-04-30T09:29:15;1999.90;;;999.90;;
11767;SDS011;5941;57.652;12.514;2023-04-30T09:31:42;1999.90;;;999.90;;
11767;SDS011;5941;57.652;12.514;2023-04-30T09:34:09;1999.90;;;999.90;;
11767;SDS011;5941;57.652;12.514;2023-04-30T09:36:35;1999.90;;;999.90;;
11767;SDS011;5941;57.652;12.514;2023-04-30T09:39:10;1999.90;;;999.90;;
11767;SDS011;5941;57.652;12.514;2023-04-30T09:41:41;1999.90;;;999.90;;
11767;SDS011;5941;57.652;12.514;2023-04-30T09:44:08;1999.90;;;999.90;;
11767;SDS011;5941;57.652;12.514;2023-04-30T09:46:50;1999.90;;;999.90;;
11767;SDS011;5941;57.652;12.514;2023-04-30T09:49:17;1999.90;;;999.90;;
11767;SDS011;5941;57.652;12.514;2023-04-30T09:51:54;1999.90;;;999.90;;
11767;SDS011;5941;57.652;12.514;2023-04-30T09:54:22;1999.90;;;999.90;;
11767;SDS011;5941;57.652;12.514;2023-04-30T09:56:51;1999.90;;;999.90;;
11767;SDS011;5941;57.652;12.514;2023-04-30T09:59:19;1999.90;;;999.90;;
11767;SDS011;5941;57.652;12.514;2023-04-30T10:01:47;1999.90;;;999.90;;
11767;SDS011;5941;57.652;12.514;2023-04-30T10:04:13;1999.90;;;999.90;;
11767;SDS011;5941;57.652;12.514;2023-04-30T10:06:40;1999.90;;;999.90;;
11767;SDS011;5941;57.652;12.514;2023-04-30T10:09:06;1999.90;;;999.90;;
11767;SDS011;5941;57.652;12.514;2023-04-30T10:11:33;1999.90;;;999.90;;
11767;SDS011;5941;57.652;12.514;2023-04-30T10:14:06;1999.90;;;999.90;;
11767;SDS011;5941;57.652;12.514;2023-04-30T10:19:00;1999.90;;;999.90;;
11767;SDS011;5941;57.652;12.514;2023-04-30T10:21:28;1999.90;;;999.90;;
11767;SDS011;5941;57.652;12.514;2023-04-30T10:23:55;1999.90;;;999.90;;
11767;SDS011;5941;57.652;12.514;2023-04-30T10:26:21;1999.90;;;999.90;;
11767;SDS011;5941;57.652;12.514;2023-04-30T10:28:48;1999.90;;;999.90;;
11767;SDS011;5941;57.652;12.514;2023-04-30T10:31:15;1999.90;;;999.90;;
11767;SDS011;5941;57.652;12.514;2023-04-30T10:33:52;1999.90;;;999.90;;
11767;SDS011;5941;57.652;12.514;2023-04-30T10:36:21;1999.90;;;999.90;;
11767;SDS011;5941;57.652;12.514;2023-04-30T10:38:49;1999.90;;;999.90;;
11767;SDS011;5941;57.652;12.514;2023-04-30T10:41:15;1999.90;;;999.90;;
11767;SDS011;5941;57.652;12.514;2023-04-30T10:43:45;1999.90;;;999.90;;
11767;SDS011;5941;57.652;12.514;2023-04-30T10:46:20;1999.90;;;999.90;;
11767;SDS011;5941;57.652;12.514;2023-04-30T10:48:47;1999.90;;;999.90;;
11767;SDS011;5941;57.652;12.514;2023-04-30T10:51:13;1999.90;;;999.90;;
11767;SDS011;5941;57.652;12.514;2023-04-30T10:53:39;1999.90;;;999.90;;
11767;SDS011;5941;57.652;12.514;2023-04-30T10:56:07;1999.90;;;999.90;;
11767;SDS011;5941;57.652;12.514;2023-04-30T10:58:34;1999.90;;;999.90;;
11767;SDS011;5941;57.652;12.514;2023-04-30T11:01:05;1999.90;;;999.90;;
11767;SDS011;5941;57.652;12.514;2023-04-30T11:03:33;1999.90;;;999.90;;
11767;SDS011;5941;57.652;12.514;2023-04-30T11:05:59;1999.90;;;999.90;;
11767;SDS011;5941;57.652;12.514;2023-04-30T11:08:31;1999.90;;;999.90;;
11767;SDS011;5941;57.652;12.514;2023-04-30T11:10:57;1999.90;;;999.90;;
11767;SDS011;5941;57.652;12.514;2023-04-30T11:13:28;1999.90;;;999.90;;
11767;SDS011;5941;57.652;12.514;2023-04-30T11:16:03;1999.90;;;999.90;;
11767;SDS011;5941;57.652;12.514;2023-04-30T11:18:29;1999.90;;;999.90;;
11767;SDS011;5941;57.652;12.514;2023-04-30T11:20:56;1999.90;;;999.90;;
11767;SDS011;5941;57.652;12.514;2023-04-30T11:23:22;1999.90;;;999.90;;
11767;SDS011;5941;57.652;12.514;2023-04-30T11:25:52;1999.90;;;999.90;;
11767;SDS011;5941;57.652;12.514;2023-04-30T11:28:19;1999.90;;;999.90;;
11767;SDS011;5941;57.652;12.514;2023-04-30T11:30:58;1999.90;;;999.90;;
11767;SDS011;5941;57.652;12.514;2023-04-30T11:33:25;1999.90;;;999.90;;
11767;SDS011;5941;57.652;12.514;2023-04-30T11:35:51;1999.90;;;999.90;;
11767;SDS011;5941;57.652;12.514;2023-04-30T11:38:21;1999.90;;;999.90;;
11767;SDS011;5941;57.652;12.514;2023-04-30T11:40:50;1999.90;;;999.90;;
11767;SDS011;5941;57.652;12.514;2023-04-30T11:43:20;1999.90;;;999.90;;
11767;SDS011;5941;57.652;12.514;2023-04-30T11:45:57;1999.90;;;999.90;;
11767;SDS011;5941;57.652;12.514;2023-04-30T11:48:23;1999.90;;;999.90;;
11767;SDS011;5941;57.652;12.514;2023-04-30T11:50:49;1999.90;;;999.90;;
11767;SDS011;5941;57.652;12.514;2023-04-30T11:53:16;1999.90;;;999.90;;
11767;SDS011;5941;57.652;12.514;2023-04-30T11:55:42;1999.90;;;999.90;;
11767;SDS011;5941;57.652;12.514;2023-04-30T11:58:08;1999.90;;;999.90;;
11767;SDS011;5941;57.652;12.514;2023-04-30T12:00:34;1999.90;;;999.90;;
11767;SDS011;5941;57.652;12.514;2023-04-30T12:03:02;1999.90;;;999.90;;
11767;SDS011;5941;57.652;12.514;2023-04-30T12:05:28;1999.90;;;999.90;;
11767;SDS011;5941;57.652;12.514;2023-04-30T12:07:55;1999.90;;;999.90;;
11767;SDS011;5941;57.652;12.514;2023-04-30T12:10:21;1999.90;;;999.90;;
11767;SDS011;5941;57.652;12.514;2023-04-30T12:12:48;1999.90;;;999.90;;
11767;SDS011;5941;57.652;12.514;2023-04-30T12:15:18;1999.90;;;999.90;;
11767;SDS011;5941;57.652;12.514;2023-04-30T12:17:46;1999.90;;;999.90;;
11767;SDS011;5941;57.652;12.514;2023-04-30T12:20:13;1999.90;;;999.90;;
11767;SDS011;5941;57.652;12.514;2023-04-30T12:22:40;1999.90;;;999.90;;
11767;SDS011;5941;57.652;12.514;2023-04-30T12:25:06;1999.90;;;999.90;;
11767;SDS011;5941;57.652;12.514;2023-04-30T12:27:34;1999.90;;;999.90;;
11767;SDS011;5941;57.652;12.514;2023-04-30T12:30:04;1999.90;;;999.90;;
11767;SDS011;5941;57.652;12.514;2023-04-30T12:32:43;1999.90;;;999.90;;
11767;SDS011;5941;57.652;12.514;2023-04-30T12:35:16;1999.90;;;999.90;;
11767;SDS011;5941;57.652;12.514;2023-04-30T12:37:46;1999.90;;;999.90;;
11767;SDS011;5941;57.652;12.514;2023-04-30T12:40:14;1999.90;;;999.90;;
11767;SDS011;5941;57.652;12.514;2023-04-30T12:42:41;1999.90;;;999.90;;
11767;SDS011;5941;57.652;12.514;2023-04-30T12:45:08;1999.90;;;999.90;;
11767;SDS011;5941;57.652;12.514;2023-04-30T12:47:38;1999.90;;;999.90;;
11767;SDS011;5941;57.652;12.514;2023-04-30T12:50:08;1999.90;;;999.90;;
11767;SDS011;5941;57.652;12.514;2023-04-30T12:52:35;1999.90;;;999.90;;
11767;SDS011;5941;57.652;12.514;2023-04-30T12:55:19;1999.90;;;999.90;;
11767;SDS011;5941;57.652;12.514;2023-04-30T12:58:01;1999.90;;;999.90;;
11767;SDS011;5941;57.652;12.514;2023-04-30T13:00:29;1999.90;;;999.90;;
11767;SDS011;5941;57.652;12.514;2023-04-30T13:02:55;1999.90;;;999.90;;
11767;SDS011;5941;57.652;12.514;2023-04-30T13:05:21;1999.90;;;999.90;;
11767;SDS011;5941;57.652;12.514;2023-04-30T13:07:47;1999.90;;;999.90;;
11767;SDS011;5941;57.652;12.514;2023-04-30T13:10:19;1999.90;;;999.90;;
11767;SDS011;5941;57.652;12.514;2023-04-30T13:12:45;1999.90;;;999.90;;
11767;SDS011;5941;57.652;12.514;2023-04-30T13:15:11;1999.90;;;999.90;;
11767;SDS011;5941;57.652;12.514;2023-04-30T13:17:37;1999.90;;;999.90;;
11767;SDS011;5941;57.652;12.514;2023-04-30T13:20:03;1999.90;;;999.90;;
11767;SDS011;5941;57.652;12.514;2023-04-30T13:22:30;1999.90;;;999.90;;
11767;SDS011;5941;57.652;12.514;2023-04-30T13:24:56;1999.90;;;999.90;;
11767;SDS011;5941;57.652;12.514;2023-04-30T13:27:22;1999.90;;;999.90;;
11767;SDS011;5941;57.652;12.514;2023-04-30T13:29:48;1999.90;;;999.90;;
11767;SDS011;5941;57.652;12.514;2023-04-30T13:32:14;1999.90;;;999.90;;
11767;SDS011;5941;57.652;12.514;2023-04-30T13:34:40;1999.90;;;999.90;;
11767;SDS011;5941;57.652;12.514;2023-04-30T13:37:06;1999.90;;;999.90;;
11767;SDS011;5941;57.652;12.514;2023-04-30T13:39:32;1999.90;;;999.90;;
11767;SDS011;5941;57.652;12.514;2023-04-30T13:41:58;1999.90;;;999.90;;
11767;SDS011;5941;57.652;12.514;2023-04-30T13:44:25;1999.90;;;999.90;;
11767;SDS011;5941;57.652;12.514;2023-04-30T13:46:51;1999.90;;;999.90;;
11767;SDS011;5941;57.652;12.514;2023-04-30T13:49:17;1999.90;;;999.90;;
11767;SDS011;5941;57.652;12.514;2023-04-30T13:51:43;1999.90;;;999.90;;
11767;SDS011;5941;57.652;12.514;2023-04-30T13:54:09;1999.90;;;999.90;;
11767;SDS011;5941;57.652;12.514;2023-04-30T13:56:35;1999.90;;;999.90;;
11767;SDS011;5941;57.652;12.514;2023-04-30T13:59:02;1999.90;;;999.90;;